createdAt,value
2022-09-28T00:00:08.442Z,2
2022-09-28T00:01:16.839Z,2
2022-09-28T00:02:25.334Z,2
2022-09-28T00:03:33.811Z,2.4
2022-09-28T00:04:42.227Z,2.4
2022-09-28T00:05:50.620Z,2.4
2022-09-28T00:06:59.216Z,2.6
2022-09-28T00:08:07.584Z,2.6
2022-09-28T00:09:16.022Z,2.6
2022-09-28T00:10:24.569Z,2.2
2022-09-28T00:11:32.976Z,2.2
2022-09-28T00:12:41.377Z,2.2
2022-09-28T00:13:49.962Z,2.5
2022-09-28T00:14:58.365Z,2.5
2022-09-28T00:16:06.769Z,2.5
2022-09-28T00:17:15.346Z,2.4
2022-09-28T00:18:23.718Z,2.4
2022-09-28T00:19:32.107Z,2.4
2022-09-28T00:20:40.711Z,2.6
2022-09-28T00:21:49.153Z,2.6
2022-09-28T00:22:57.483Z,2.6
2022-09-28T00:24:06.100Z,2.6
2022-09-28T00:25:14.457Z,2.6
2022-09-28T00:26:22.875Z,2.6
2022-09-28T00:27:31.450Z,2.5
2022-09-28T00:28:39.865Z,2.5
2022-09-28T00:29:48.235Z,2.5
2022-09-28T00:30:56.855Z,2.9
2022-09-28T00:32:05.272Z,2.9
2022-09-28T00:33:13.641Z,2.9
2022-09-28T00:34:22.236Z,2.7
2022-09-28T00:35:30.601Z,2.7
2022-09-28T00:36:39.009Z,2.7
2022-09-28T00:37:47.616Z,2.8
2022-09-28T00:38:55.975Z,2.8
2022-09-28T00:40:04.367Z,2.8
2022-09-28T00:41:12.976Z,2.5
2022-09-28T00:42:21.368Z,2.5
2022-09-28T00:43:29.733Z,2.5
2022-09-28T00:44:38.335Z,2.1
2022-09-28T00:45:46.735Z,2.1
2022-09-28T00:46:55.104Z,2.1
2022-09-28T00:48:03.706Z,2.1
2022-09-28T00:49:12.100Z,2.1
2022-09-28T00:50:20.478Z,2.1
2022-09-28T00:51:29.101Z,2.2
2022-09-28T00:52:37.473Z,2.2
2022-09-28T00:53:45.948Z,2.2
2022-09-28T00:54:54.520Z,2.4
2022-09-28T00:56:02.902Z,2.4
2022-09-28T00:57:11.291Z,2.4
2022-09-28T00:58:19.874Z,2.8
2022-09-28T00:59:28.306Z,2.8
2022-09-28T01:00:36.731Z,2.8
2022-09-28T01:01:45.371Z,2.7
2022-09-28T01:02:53.705Z,2.7
2022-09-28T01:04:02.083Z,2.7
2022-09-28T01:05:10.683Z,3.1
2022-09-28T01:06:19.073Z,3.1
2022-09-28T01:07:27.469Z,3.1
2022-09-28T01:08:36.044Z,3.2
2022-09-28T01:09:44.454Z,3.2
2022-09-28T01:10:52.831Z,3.2
2022-09-28T01:12:01.436Z,2.7
2022-09-28T01:13:09.819Z,2.7
2022-09-28T01:14:18.195Z,2.7
2022-09-28T01:15:26.800Z,2.7
2022-09-28T01:16:35.224Z,2.7
2022-09-28T01:17:43.573Z,2.7
2022-09-28T01:18:52.158Z,2.8
2022-09-28T01:20:00.537Z,2.8
2022-09-28T01:21:08.949Z,2.8
2022-09-28T01:22:17.542Z,2.9
2022-09-28T01:23:25.941Z,2.9
2022-09-28T01:24:34.322Z,2.9
2022-09-28T01:25:42.959Z,3
2022-09-28T01:26:51.338Z,3
2022-09-28T01:27:59.711Z,3
2022-09-28T01:29:08.326Z,3.3
2022-09-28T01:30:16.723Z,3.3
2022-09-28T01:31:25.107Z,3.3
2022-09-28T01:32:33.694Z,2.8
2022-09-28T01:33:42.077Z,2.8
2022-09-28T01:34:50.453Z,2.8
2022-09-28T01:35:59.086Z,2.8
2022-09-28T01:37:07.454Z,2.8
2022-09-28T01:38:15.859Z,2.8
2022-09-28T01:39:24.418Z,2.8
2022-09-28T01:40:32.854Z,2.8
2022-09-28T01:41:41.234Z,2.8
2022-09-28T01:42:49.806Z,3.2
2022-09-28T01:43:58.181Z,3.2
2022-09-28T01:45:06.583Z,3.2
2022-09-28T01:46:15.207Z,3.2
2022-09-28T01:47:23.584Z,3.2
2022-09-28T01:48:31.980Z,3.2
2022-09-28T01:49:40.601Z,3.2
2022-09-28T01:50:48.973Z,3.2
2022-09-28T01:51:57.361Z,3.2
2022-09-28T01:53:05.946Z,3.5
2022-09-28T01:54:14.338Z,3.5
2022-09-28T01:55:22.713Z,3.5
2022-09-28T01:56:31.326Z,3.3
2022-09-28T01:57:39.731Z,3.3
2022-09-28T01:58:48.085Z,3.3
2022-09-28T01:59:56.691Z,3.5
2022-09-28T02:01:05.207Z,3.5
2022-09-28T02:02:13.650Z,3.5
2022-09-28T02:03:22.077Z,3.9
2022-09-28T02:04:30.490Z,3.9
2022-09-28T02:05:38.879Z,3.9
2022-09-28T02:06:47.474Z,3.7
2022-09-28T02:07:55.864Z,3.7
2022-09-28T02:09:04.276Z,3.7
2022-09-28T02:10:12.879Z,3.6
2022-09-28T02:11:21.271Z,3.6
2022-09-28T02:12:29.641Z,3.6
2022-09-28T02:13:38.261Z,3.8
2022-09-28T02:14:46.624Z,3.8
2022-09-28T02:15:55.017Z,3.8
2022-09-28T02:17:03.593Z,4.3
2022-09-28T02:18:11.964Z,4.3
2022-09-28T02:19:20.363Z,4.3
2022-09-28T02:20:28.937Z,4.2
2022-09-28T02:21:37.341Z,4.2
2022-09-28T02:22:45.724Z,4.2
2022-09-28T02:23:54.331Z,3.6
2022-09-28T02:25:02.740Z,3.6
2022-09-28T02:26:11.122Z,3.6
2022-09-28T02:27:19.739Z,4
2022-09-28T02:28:28.139Z,4
2022-09-28T02:29:36.576Z,4
2022-09-28T02:30:45.135Z,3.9
2022-09-28T02:31:53.526Z,3.9
2022-09-28T02:33:01.899Z,3.9
2022-09-28T02:34:10.528Z,3.8
2022-09-28T02:35:18.920Z,3.8
2022-09-28T02:36:27.276Z,3.8
2022-09-28T02:37:35.887Z,4.5
2022-09-28T02:38:44.274Z,4.5
2022-09-28T02:39:52.690Z,4.5
2022-09-28T02:41:01.396Z,5
2022-09-28T02:42:09.670Z,5
2022-09-28T02:43:18.032Z,5
2022-09-28T02:44:26.656Z,4.1
2022-09-28T02:45:35.123Z,4.1
2022-09-28T02:46:43.444Z,4.1
2022-09-28T02:47:52.052Z,4
2022-09-28T02:49:20.118Z,4
2022-09-28T02:50:08.846Z,4
2022-09-28T02:51:17.426Z,4.6
2022-09-28T02:52:25.808Z,4.6
2022-09-28T02:53:34.193Z,4.6
2022-09-28T02:54:42.795Z,4.6
2022-09-28T02:55:51.170Z,4.6
2022-09-28T02:56:59.542Z,4.6
2022-09-28T02:58:08.152Z,5
2022-09-28T02:59:16.642Z,5
2022-09-28T03:00:24.953Z,5
2022-09-28T03:01:33.571Z,5.6
2022-09-28T03:02:41.953Z,5.6
2022-09-28T03:03:50.368Z,5.6
2022-09-28T03:04:58.978Z,4.9
2022-09-28T03:06:07.359Z,4.9
2022-09-28T03:07:15.775Z,4.9
2022-09-28T03:08:24.337Z,5.2
2022-09-28T03:09:32.740Z,5.2
2022-09-28T03:10:41.142Z,5.2
2022-09-28T03:11:49.737Z,5
2022-09-28T03:12:58.111Z,5
2022-09-28T03:14:06.490Z,5
2022-09-28T03:15:15.109Z,5.3
2022-09-28T03:16:23.571Z,5.3
2022-09-28T03:17:31.916Z,5.3
2022-09-28T03:18:40.491Z,5.6
2022-09-28T03:19:48.880Z,5.6
2022-09-28T03:20:57.263Z,5.6
2022-09-28T03:22:05.853Z,6
2022-09-28T03:23:29.678Z,6
2022-09-28T03:24:22.603Z,6
2022-09-28T03:25:31.189Z,6.1
2022-09-28T03:26:39.568Z,6.1
2022-09-28T03:27:47.953Z,6.1
2022-09-28T03:28:56.566Z,5.1
2022-09-28T03:30:04.962Z,5.1
2022-09-28T03:31:13.342Z,5.1
2022-09-28T03:32:21.919Z,4.6
2022-09-28T03:33:30.334Z,4.6
2022-09-28T03:34:38.684Z,4.6
2022-09-28T03:35:47.299Z,4.9
2022-09-28T03:36:55.686Z,4.9
2022-09-28T03:38:04.067Z,4.9
2022-09-28T03:39:12.701Z,4.7
2022-09-28T03:40:21.115Z,4.7
2022-09-28T03:41:29.431Z,4.7
2022-09-28T03:42:38.012Z,4.5
2022-09-28T03:43:46.413Z,4.5
2022-09-28T03:44:54.817Z,4.5
2022-09-28T03:46:03.489Z,4.9
2022-09-28T03:47:11.850Z,4.9
2022-09-28T03:48:23.981Z,4.9
2022-09-28T03:49:28.877Z,4.8
2022-09-28T03:50:37.222Z,4.8
2022-09-28T03:51:45.617Z,4.8
2022-09-28T03:52:54.218Z,4.5
2022-09-28T03:54:02.617Z,4.5
2022-09-28T03:55:11.015Z,4.5
2022-09-28T03:56:19.621Z,4.4
2022-09-28T03:57:28.024Z,4.4
2022-09-28T03:58:36.406Z,4.4
2022-09-28T03:59:45.009Z,4.3
2022-09-28T04:00:53.422Z,4.3
2022-09-28T04:02:01.895Z,4.3
2022-09-28T04:03:10.354Z,3.9
2022-09-28T04:04:18.739Z,3.9
2022-09-28T04:05:27.143Z,3.9
2022-09-28T04:06:35.724Z,3.9
2022-09-28T04:07:44.136Z,3.9
2022-09-28T04:08:52.559Z,3.9
2022-09-28T04:10:01.162Z,4.1
2022-09-28T04:11:09.550Z,4.1
2022-09-28T04:12:17.916Z,4.1
2022-09-28T04:13:26.522Z,4.3
2022-09-28T04:14:34.921Z,4.3
2022-09-28T04:15:43.294Z,4.3
2022-09-28T04:16:51.940Z,2.9
2022-09-28T04:18:00.288Z,2.9
2022-09-28T04:19:08.667Z,2.9
2022-09-28T04:20:17.269Z,2.2
2022-09-28T04:21:25.716Z,2.2
2022-09-28T04:22:34.045Z,2.2
2022-09-28T04:23:42.651Z,1.5
2022-09-28T04:24:51.040Z,1.5
2022-09-28T04:25:59.419Z,1.5
2022-09-28T04:27:08.025Z,1.2
2022-09-28T04:28:16.444Z,1.2
2022-09-28T04:29:24.836Z,1.2
2022-09-28T04:30:33.467Z,1.1
2022-09-28T04:31:41.962Z,1.1
2022-09-28T04:32:50.245Z,1.1
2022-09-28T04:33:58.896Z,1
2022-09-28T04:35:07.285Z,1
2022-09-28T04:36:15.703Z,1
2022-09-28T04:37:24.329Z,0.9
2022-09-28T04:38:51.600Z,0.9
2022-09-28T04:39:44.004Z,0.9
2022-09-28T04:40:49.715Z,0.8
2022-09-28T04:41:58.095Z,0.8
2022-09-28T04:43:06.483Z,0.8
2022-09-28T04:44:15.073Z,0.9
2022-09-28T04:45:23.469Z,0.9
2022-09-28T04:46:31.857Z,0.9
2022-09-28T04:47:40.425Z,0.7
2022-09-28T04:48:48.863Z,0.7
2022-09-28T04:49:57.236Z,0.7
2022-09-28T04:51:05.849Z,0.5
2022-09-28T04:52:18.176Z,0.5
2022-09-28T04:53:22.648Z,0.5
2022-09-28T04:54:31.231Z,0.6
2022-09-28T04:55:39.621Z,0.6
2022-09-28T04:56:48.013Z,0.6
2022-09-28T04:57:56.607Z,6.6
2022-09-28T04:59:04.995Z,6.6
2022-09-28T05:00:13.397Z,6.6
2022-09-28T05:01:22.011Z,4.4
2022-09-28T05:02:30.422Z,4.4
2022-09-28T05:03:38.771Z,4.4
2022-09-28T05:04:47.374Z,9.6
2022-09-28T05:05:55.741Z,9.6
2022-09-28T05:07:04.140Z,9.6
2022-09-28T05:08:12.783Z,0.9
2022-09-28T05:09:21.170Z,0.9
2022-09-28T05:10:29.548Z,0.9
2022-09-28T05:11:38.187Z,3.9
2022-09-28T05:12:46.552Z,3.9
2022-09-28T05:13:54.961Z,3.9
2022-09-28T05:15:03.580Z,44.099998
2022-09-28T05:16:12.006Z,44.099998
2022-09-28T05:17:20.352Z,44.099998
2022-09-28T05:18:28.984Z,1.2
2022-09-28T05:19:37.357Z,1.2
2022-09-28T05:20:45.734Z,1.2
2022-09-28T05:21:54.342Z,0.5
2022-09-28T05:23:02.749Z,0.5
2022-09-28T05:24:11.165Z,0.5
2022-09-28T05:25:19.800Z,0.8
2022-09-28T05:26:28.174Z,0.8
2022-09-28T05:27:36.579Z,0.8
2022-09-28T05:28:45.239Z,0.8
2022-09-28T05:29:53.594Z,0.8
2022-09-28T05:31:02.013Z,0.8
2022-09-28T05:32:10.671Z,0.9
2022-09-28T05:33:18.982Z,0.9
2022-09-28T05:34:27.387Z,0.9
2022-09-28T05:35:36.012Z,0.9
2022-09-28T05:36:44.364Z,0.9
2022-09-28T05:37:52.764Z,0.9
2022-09-28T05:39:01.383Z,1
2022-09-28T05:40:09.773Z,1
2022-09-28T05:41:18.185Z,1
2022-09-28T05:42:26.769Z,1.2
2022-09-28T05:43:35.164Z,1.2
2022-09-28T05:44:43.567Z,1.2
2022-09-28T05:45:55.500Z,1.1
2022-09-28T05:47:00.613Z,1.1
2022-09-28T05:48:08.955Z,1.1
2022-09-28T05:49:17.533Z,1
2022-09-28T05:50:25.940Z,1
2022-09-28T05:51:34.327Z,1
2022-09-28T05:52:42.911Z,1
2022-09-28T05:53:51.316Z,1
2022-09-28T05:54:59.675Z,1
2022-09-28T05:56:08.293Z,1
2022-09-28T05:57:16.737Z,1
2022-09-28T05:58:25.155Z,1
2022-09-28T05:59:33.757Z,2.7
2022-09-28T06:00:42.166Z,2.7
2022-09-28T06:01:50.549Z,2.7
2022-09-28T06:02:59.128Z,1.1
2022-09-28T06:04:07.521Z,1.1
2022-09-28T06:05:15.912Z,1.1
2022-09-28T06:06:24.484Z,0.9
2022-09-28T06:07:32.931Z,0.9
2022-09-28T06:08:41.290Z,0.9
2022-09-28T06:09:49.879Z,1.7
2022-09-28T06:10:58.256Z,1.7
2022-09-28T06:12:06.651Z,1.7
2022-09-28T06:13:15.256Z,1
2022-09-28T06:14:23.655Z,1
2022-09-28T06:15:32.039Z,1
2022-09-28T06:16:43.775Z,6
2022-09-28T06:17:49.028Z,6
2022-09-28T06:18:57.408Z,6
2022-09-28T06:20:06.010Z,1.4
2022-09-28T06:21:14.375Z,1.4
2022-09-28T06:22:22.755Z,1.4
2022-09-28T06:23:31.345Z,1.1
2022-09-28T06:24:39.713Z,1.1
2022-09-28T06:25:48.166Z,1.1
2022-09-28T06:26:56.762Z,8.1
2022-09-28T06:28:05.136Z,8.1
2022-09-28T06:29:17.296Z,8.1
2022-09-28T06:30:22.228Z,0.8
2022-09-28T06:31:30.493Z,0.8
2022-09-28T06:32:38.906Z,0.8
2022-09-28T06:33:47.504Z,1
2022-09-28T06:34:56.527Z,1
2022-09-28T06:36:04.286Z,1
2022-09-28T06:37:12.888Z,13.6
2022-09-28T06:38:21.291Z,13.6
2022-09-28T06:39:29.675Z,13.6
2022-09-28T06:40:38.392Z,15.2
2022-09-28T06:41:46.643Z,15.2
2022-09-28T06:42:55.037Z,15.2
2022-09-28T06:44:03.630Z,4.4
2022-09-28T06:45:12.017Z,4.4
2022-09-28T06:46:20.451Z,4.4
2022-09-28T06:47:28.993Z,1.4
2022-09-28T06:48:37.389Z,1.4
2022-09-28T06:49:45.774Z,1.4
2022-09-28T06:50:54.406Z,14.7
2022-09-28T06:52:02.766Z,14.7
2022-09-28T06:53:11.193Z,14.7
2022-09-28T06:54:19.749Z,1
2022-09-28T06:55:28.147Z,1
2022-09-28T06:56:36.530Z,1
2022-09-28T06:57:45.152Z,1.3
2022-09-28T06:58:53.520Z,1.3
2022-09-28T07:00:01.927Z,1.3
2022-09-28T07:01:10.585Z,2.3
2022-09-28T07:02:19.001Z,2.3
2022-09-28T07:03:27.321Z,2.3
2022-09-28T07:04:35.918Z,0.8
2022-09-28T07:05:44.321Z,0.8
2022-09-28T07:06:52.697Z,0.8
2022-09-28T07:08:01.313Z,1.7
2022-09-28T07:09:25.102Z,1.7
2022-09-28T07:10:18.094Z,1.7
2022-09-28T07:11:26.658Z,2.4
2022-09-28T07:12:35.087Z,2.4
2022-09-28T07:13:50.646Z,2.4
2022-09-28T07:14:52.363Z,7.2
2022-09-28T07:16:00.442Z,7.2
2022-09-28T07:17:13.464Z,7.2
2022-09-28T07:18:17.445Z,31.700001
2022-09-28T07:19:25.813Z,31.700001
2022-09-28T07:20:41.075Z,31.700001
2022-09-28T07:21:42.944Z,26
2022-09-28T07:22:51.216Z,26
2022-09-28T07:23:59.576Z,26
2022-09-28T07:25:08.187Z,38.299999
2022-09-28T07:26:20.045Z,38.299999
2022-09-28T07:27:28.803Z,38.299999
2022-09-28T07:28:33.571Z,50.299999
2022-09-28T07:29:41.979Z,50.299999
2022-09-28T07:30:50.404Z,50.299999
2022-09-28T07:31:58.945Z,4.5
2022-09-28T07:33:07.371Z,4.5
2022-09-28T07:34:15.792Z,4.5
2022-09-28T07:35:24.312Z,3.3
2022-09-28T07:36:32.717Z,3.3
2022-09-28T07:37:41.109Z,3.3
2022-09-28T07:38:49.719Z,1.5
2022-09-28T07:39:58.091Z,1.5
2022-09-28T07:41:06.516Z,1.5
2022-09-28T07:42:15.097Z,4.1
2022-09-28T07:43:23.486Z,4.1
2022-09-28T07:44:31.893Z,4.1
2022-09-28T07:45:40.503Z,5.9
2022-09-28T07:46:48.873Z,5.9
2022-09-28T07:47:57.270Z,5.9
2022-09-28T07:49:07.026Z,4.7
2022-09-28T07:50:14.256Z,4.7
2022-09-28T07:51:22.643Z,4.7
2022-09-28T07:52:31.255Z,0.6
2022-09-28T07:53:39.632Z,0.6
2022-09-28T07:54:48.019Z,0.6
2022-09-28T07:55:56.610Z,0.6
2022-09-28T07:57:05.027Z,0.6
2022-09-28T07:58:13.410Z,0.6
2022-09-28T07:59:22.011Z,0.8
2022-09-28T08:00:33.877Z,0.8
2022-09-28T08:01:38.832Z,0.8
2022-09-28T08:02:47.393Z,1
2022-09-28T08:03:55.765Z,1
2022-09-28T08:05:04.172Z,1
2022-09-28T08:06:12.762Z,1.4
2022-09-28T08:07:23.777Z,1.4
2022-09-28T08:08:29.551Z,1.4
2022-09-28T08:09:38.152Z,3.8
2022-09-28T08:10:47.540Z,3.8
2022-09-28T08:11:54.966Z,3.8
2022-09-28T08:13:04.662Z,0.7
2022-09-28T08:14:11.969Z,0.7
2022-09-28T08:15:20.347Z,0.7
2022-09-28T08:16:29.062Z,0.6
2022-09-28T08:17:37.355Z,0.6
2022-09-28T08:18:45.754Z,0.6
2022-09-28T08:19:54.350Z,0.6
2022-09-28T08:21:02.746Z,0.6
2022-09-28T08:22:11.124Z,0.6
2022-09-28T08:23:19.758Z,0.8
2022-09-28T08:24:28.167Z,0.8
2022-09-28T08:25:36.555Z,0.8
2022-09-28T08:26:45.165Z,0.6
2022-09-28T08:27:53.545Z,0.6
2022-09-28T08:29:01.937Z,0.6
2022-09-28T08:30:10.597Z,0.6
2022-09-28T08:31:18.965Z,0.6
2022-09-28T08:32:27.346Z,0.6
2022-09-28T08:33:35.937Z,0.5
2022-09-28T08:34:44.334Z,0.5
2022-09-28T08:35:52.738Z,0.5
2022-09-28T08:37:01.349Z,0.5
2022-09-28T08:38:09.717Z,0.5
2022-09-28T08:39:18.122Z,0.5
2022-09-28T08:40:26.735Z,0.6
2022-09-28T08:41:35.121Z,0.6
2022-09-28T08:42:43.548Z,0.6
2022-09-28T08:43:52.144Z,0.7
2022-09-28T08:45:00.541Z,0.7
2022-09-28T08:46:08.974Z,0.7
2022-09-28T08:47:17.524Z,0.7
2022-09-28T08:48:25.916Z,0.7
2022-09-28T08:49:34.462Z,0.7
2022-09-28T08:50:42.883Z,1.2
2022-09-28T08:51:51.295Z,1.2
2022-09-28T08:52:59.737Z,1.2
2022-09-28T08:54:10.997Z,1.7
2022-09-28T08:55:16.692Z,1.7
2022-09-28T08:56:25.114Z,1.7
2022-09-28T08:57:33.804Z,0.5
2022-09-28T08:58:42.227Z,0.5
2022-09-28T08:59:50.613Z,0.5
2022-09-28T09:00:59.329Z,0.6
2022-09-28T09:02:07.692Z,0.6
2022-09-28T09:03:15.996Z,0.6
2022-09-28T09:04:24.608Z,0.8
2022-09-28T09:05:32.980Z,0.8
2022-09-28T09:06:41.383Z,0.8
2022-09-28T09:07:49.985Z,0.5
2022-09-28T09:08:58.367Z,0.5
2022-09-28T09:10:06.775Z,0.5
2022-09-28T09:11:15.370Z,0.4
2022-09-28T09:12:23.760Z,0.4
2022-09-28T09:13:32.153Z,0.4
2022-09-28T09:14:40.751Z,0.8
2022-09-28T09:15:49.153Z,0.8
2022-09-28T09:16:59.899Z,0.8
2022-09-28T09:18:06.143Z,0.3
2022-09-28T09:19:14.525Z,0.3
2022-09-28T09:20:22.948Z,0.3
2022-09-28T09:21:31.518Z,0.3
2022-09-28T09:22:39.910Z,0.3
2022-09-28T09:23:48.297Z,0.3
2022-09-28T09:24:56.943Z,0.4
2022-09-28T09:26:05.398Z,0.4
2022-09-28T09:27:13.725Z,0.4
2022-09-28T09:28:22.330Z,0.4
2022-09-28T09:29:30.745Z,0.4
2022-09-28T09:30:39.186Z,0.4
2022-09-28T09:31:47.764Z,0.3
2022-09-28T09:32:56.126Z,0.3
2022-09-28T09:34:04.525Z,0.3
2022-09-28T09:35:13.136Z,0.2
2022-09-28T09:36:21.590Z,0.2
2022-09-28T09:37:30.006Z,0.2
2022-09-28T09:38:38.601Z,0.2
2022-09-28T09:39:47.010Z,0.2
2022-09-28T09:40:55.535Z,0.2
2022-09-28T09:42:03.972Z,0.4
2022-09-28T09:43:12.366Z,0.4
2022-09-28T09:44:20.775Z,0.4
2022-09-28T09:45:29.381Z,0.3
2022-09-28T09:46:37.781Z,0.3
2022-09-28T09:47:46.192Z,0.3
2022-09-28T09:48:54.779Z,0.3
2022-09-28T09:50:05.277Z,0.3
2022-09-28T09:51:11.583Z,0.3
2022-09-28T09:52:20.242Z,0.3
2022-09-28T09:53:28.586Z,0.3
2022-09-28T09:54:37.002Z,0.3
2022-09-28T09:55:45.604Z,0.3
2022-09-28T09:56:54.035Z,0.3
2022-09-28T09:58:02.379Z,0.3
2022-09-28T09:59:11.049Z,0.3
2022-09-28T10:00:19.382Z,0.3
2022-09-28T10:01:27.826Z,0.3
2022-09-28T10:02:36.451Z,0.3
2022-09-28T10:03:44.762Z,0.3
2022-09-28T10:04:53.161Z,0.3
2022-09-28T10:06:01.758Z,0.4
2022-09-28T10:07:10.163Z,0.4
2022-09-28T10:08:18.555Z,0.4
2022-09-28T10:09:27.139Z,0.4
2022-09-28T10:10:35.557Z,0.4
2022-09-28T10:11:43.949Z,0.4
2022-09-28T10:12:52.578Z,0.5
2022-09-28T10:14:00.936Z,0.5
2022-09-28T10:15:09.345Z,0.5
2022-09-28T10:16:18.001Z,0.5
2022-09-28T10:17:40.472Z,0.5
2022-09-28T10:18:50.265Z,0.5
2022-09-28T10:19:58.869Z,0.5
2022-09-28T10:21:07.273Z,0.5
2022-09-28T10:22:15.643Z,0.5
2022-09-28T10:23:24.254Z,0.6
2022-09-28T10:24:32.625Z,0.6
2022-09-28T10:25:41.015Z,0.6
2022-09-28T10:26:49.609Z,1.4
2022-09-28T10:27:58.009Z,1.4
2022-09-28T10:29:06.384Z,1.4
2022-09-28T10:30:14.971Z,4.4
2022-09-28T10:31:23.382Z,4.4
2022-09-28T10:32:31.774Z,4.4
2022-09-28T10:33:40.407Z,2.2
2022-09-28T10:34:50.293Z,2.2
2022-09-28T10:35:57.173Z,2.2
2022-09-28T10:37:05.741Z,2.2
2022-09-28T10:38:14.162Z,2.2
2022-09-28T10:39:22.569Z,2.2
2022-09-28T10:40:31.237Z,0.9
2022-09-28T10:41:39.558Z,0.9
2022-09-28T10:42:47.960Z,0.9
2022-09-28T10:43:58.151Z,0.9
2022-09-28T10:45:04.993Z,0.9
2022-09-28T10:46:13.500Z,0.9
2022-09-28T10:47:21.917Z,0.9
2022-09-28T10:48:30.328Z,0.9
2022-09-28T10:49:41.081Z,0.9
2022-09-28T10:50:47.319Z,0.8
2022-09-28T10:51:55.709Z,0.8
2022-09-28T10:53:04.124Z,0.8
2022-09-28T10:54:12.720Z,1.6
2022-09-28T10:55:21.122Z,1.6
2022-09-28T10:56:29.530Z,1.6
2022-09-28T10:57:38.122Z,1.5
2022-09-28T10:58:46.496Z,1.5
2022-09-28T10:59:54.930Z,1.5
2022-09-28T11:01:03.556Z,1.3
2022-09-28T11:02:11.900Z,1.3
2022-09-28T11:03:20.305Z,1.3
2022-09-28T11:04:28.935Z,1.3
2022-09-28T11:05:37.313Z,1.3
2022-09-28T11:06:45.707Z,1.3
2022-09-28T11:07:54.310Z,0.7
2022-09-28T11:09:02.690Z,0.7
2022-09-28T11:10:11.102Z,0.7
2022-09-28T11:11:19.696Z,1.1
2022-09-28T11:12:28.111Z,1.1
2022-09-28T11:13:36.469Z,1.1
2022-09-28T11:14:45.055Z,1.3
2022-09-28T11:15:53.480Z,1.3
2022-09-28T11:17:01.943Z,1.3
2022-09-28T11:18:10.441Z,1.4
2022-09-28T11:19:18.955Z,1.4
2022-09-28T11:20:28.395Z,1.4
2022-09-28T11:21:35.805Z,1
2022-09-28T11:22:44.202Z,1
2022-09-28T11:23:52.599Z,1
2022-09-28T11:25:01.169Z,1.6
2022-09-28T11:26:09.596Z,1.6
2022-09-28T11:27:17.952Z,1.6
2022-09-28T11:28:26.559Z,1.1
2022-09-28T11:29:34.972Z,1.1
2022-09-28T11:30:43.404Z,1.1
2022-09-28T11:31:51.971Z,0.9
2022-09-28T11:33:00.361Z,0.9
2022-09-28T11:34:08.767Z,0.9
2022-09-28T11:35:17.351Z,0.8
2022-09-28T11:36:25.750Z,0.8
2022-09-28T11:37:34.169Z,0.8
2022-09-28T11:38:42.760Z,1
2022-09-28T11:39:51.161Z,1
2022-09-28T11:40:59.642Z,1
2022-09-28T11:42:08.989Z,0.4
2022-09-28T11:43:16.722Z,0.4
2022-09-28T11:44:27.079Z,0.4
2022-09-28T11:45:33.488Z,0.5
2022-09-28T11:46:41.886Z,0.5
2022-09-28T11:47:50.286Z,0.5
2022-09-28T11:48:58.860Z,0.6
2022-09-28T11:50:07.246Z,0.6
2022-09-28T11:51:15.655Z,0.6
2022-09-28T11:52:24.282Z,0.7
2022-09-28T11:53:32.687Z,0.7
2022-09-28T11:54:41.072Z,0.7
2022-09-28T11:55:49.700Z,1.8
2022-09-28T11:56:58.100Z,1.8
2022-09-28T11:58:06.495Z,1.8
2022-09-28T11:59:15.117Z,0.8
2022-09-28T12:00:23.509Z,0.8
2022-09-28T12:01:31.927Z,0.8
2022-09-28T12:02:40.617Z,1.3
2022-09-28T12:03:49.043Z,1.3
2022-09-28T12:04:57.296Z,1.3
2022-09-28T12:06:05.904Z,5.6
2022-09-28T12:07:14.282Z,5.6
2022-09-28T12:08:22.665Z,5.6
2022-09-28T12:09:31.264Z,2.9
2022-09-28T12:10:43.392Z,2.9
2022-09-28T12:11:48.059Z,2.9
2022-09-28T12:12:56.664Z,4.9
2022-09-28T12:14:05.066Z,4.9
2022-09-28T12:15:13.453Z,4.9
2022-09-28T12:17:30.485Z,1.3
2022-09-28T12:18:38.839Z,1.3
2022-09-28T12:19:47.493Z,0.7
2022-09-28T12:20:55.810Z,0.7
2022-09-28T12:22:04.211Z,0.7
2022-09-28T12:23:12.815Z,0.9
2022-09-28T12:24:21.198Z,0.9
2022-09-28T12:25:29.588Z,0.9
2022-09-28T12:26:38.215Z,0.7
2022-09-28T12:27:46.565Z,0.7
2022-09-28T12:28:54.987Z,0.7
2022-09-28T12:30:03.621Z,0.8
2022-09-28T12:31:12.038Z,0.8
2022-09-28T12:32:20.395Z,0.8
2022-09-28T12:33:28.976Z,0.9
2022-09-28T12:34:37.371Z,0.9
2022-09-28T12:35:45.784Z,0.9
2022-09-28T12:36:54.355Z,0.8
2022-09-28T12:38:02.759Z,0.8
2022-09-28T12:39:24.231Z,0.8
2022-09-28T12:40:19.832Z,0.7
2022-09-28T12:41:28.212Z,0.7
2022-09-28T12:42:36.623Z,0.7
2022-09-28T12:43:45.251Z,0.7
2022-09-28T12:44:57.181Z,0.7
2022-09-28T12:46:13.511Z,0.7
2022-09-28T12:47:10.823Z,0.7
2022-09-28T12:48:19.112Z,0.7
2022-09-28T12:50:38.974Z,1
2022-09-28T12:51:44.634Z,1
2022-09-28T12:52:53.053Z,1
2022-09-28T12:54:01.694Z,0.9
2022-09-28T12:56:20.827Z,0.9
2022-09-28T12:57:27.434Z,0.8
2022-09-28T12:58:35.829Z,0.8
2022-09-28T12:59:44.275Z,0.8
2022-09-28T13:00:52.882Z,1
2022-09-28T13:02:01.380Z,1
2022-09-28T13:03:09.720Z,1
2022-09-28T13:04:18.373Z,0.9
2022-09-28T13:05:26.801Z,0.9
2022-09-28T13:06:35.255Z,0.9
2022-09-28T13:07:43.924Z,1
2022-09-28T13:08:52.328Z,1
2022-09-28T13:10:00.788Z,1
2022-09-28T13:11:09.355Z,1.1
2022-09-28T13:12:17.779Z,1.1
2022-09-28T13:13:26.198Z,1.1
2022-09-28T13:14:34.811Z,1
2022-09-28T13:15:43.282Z,1
2022-09-28T13:16:51.660Z,1
2022-09-28T13:18:00.271Z,0.8
2022-09-28T13:19:08.713Z,0.8
2022-09-28T13:20:17.132Z,0.8
2022-09-28T13:21:25.763Z,1
2022-09-28T13:22:34.186Z,1
2022-09-28T13:23:42.691Z,1
2022-09-28T13:24:51.296Z,0.9
2022-09-28T13:25:59.734Z,0.9
2022-09-28T13:27:08.134Z,0.9
2022-09-28T13:28:16.756Z,1
2022-09-28T13:29:25.152Z,1
2022-09-28T13:30:33.654Z,1
2022-09-28T13:31:42.209Z,1.1
2022-09-28T13:32:50.619Z,1.1
2022-09-28T13:33:59.039Z,1.1
2022-09-28T13:35:07.800Z,1.1
2022-09-28T13:36:16.163Z,1.1
2022-09-28T13:37:24.559Z,1.1
2022-09-28T13:38:33.215Z,1.4
2022-09-28T13:39:41.822Z,1.4
2022-09-28T13:40:50.052Z,1.4
2022-09-28T13:41:58.648Z,1.3
2022-09-28T13:43:07.115Z,1.3
2022-09-28T13:44:15.590Z,1.3
2022-09-28T13:45:24.183Z,1.7
2022-09-28T13:46:32.590Z,1.7
2022-09-28T13:47:41.032Z,1.7
2022-09-28T13:48:49.696Z,3
2022-09-28T13:49:58.305Z,3
2022-09-28T13:51:06.583Z,3
2022-09-28T13:52:15.213Z,3.8
2022-09-28T13:53:23.644Z,3.8
2022-09-28T13:54:32.079Z,3.8
2022-09-28T13:55:40.776Z,3
2022-09-28T13:56:49.224Z,3
2022-09-28T13:57:57.624Z,3
2022-09-28T13:59:06.272Z,1.9
2022-09-28T14:00:14.728Z,1.9
2022-09-28T14:01:23.271Z,1.9
2022-09-28T14:02:31.886Z,1.6
2022-09-28T14:03:40.308Z,1.6
2022-09-28T14:04:48.761Z,1.6
2022-09-28T14:05:57.407Z,3
2022-09-28T14:07:05.813Z,3
2022-09-28T14:08:14.301Z,3
2022-09-28T14:09:22.964Z,1.8
2022-09-28T14:10:31.404Z,1.8
2022-09-28T14:11:47.890Z,1.8
2022-09-28T14:12:55.829Z,1.9
2022-09-28T14:14:04.861Z,1.9
2022-09-28T14:15:13.275Z,1.9
2022-09-28T14:16:21.951Z,1.7
2022-09-28T14:17:30.369Z,1.7
2022-09-28T14:18:38.819Z,1.7
2022-09-28T14:20:00.212Z,1.7
2022-09-28T14:21:09.604Z,1.7
2022-09-28T14:22:28.128Z,1.7
2022-09-28T14:23:39.199Z,2.4
2022-09-28T14:24:47.646Z,2.4
2022-09-28T14:25:56.042Z,2.4
2022-09-28T14:27:04.715Z,2
2022-09-28T14:28:13.085Z,2
2022-09-28T14:29:21.632Z,2
2022-09-28T14:30:30.233Z,2.5
2022-09-28T15:03:48.739Z,0
2022-09-28T15:04:57.172Z,0
2022-09-28T15:06:05.419Z,0
2022-09-28T15:07:14.011Z,5.9
2022-09-28T15:08:22.384Z,5.9
2022-09-28T15:09:30.719Z,5.9
2022-09-28T15:10:39.317Z,1.5
2022-09-28T15:11:47.676Z,1.5
2022-09-28T15:12:56.084Z,1.5
2022-09-28T15:14:04.657Z,1.7
2022-09-28T15:15:13.030Z,1.7
2022-09-28T15:16:21.383Z,1.7
2022-09-28T15:17:29.996Z,2
2022-09-28T15:18:38.391Z,2
2022-09-28T15:19:46.784Z,2
2022-09-28T15:20:55.368Z,1.6
2022-09-28T15:22:03.729Z,1.6
2022-09-28T15:23:12.120Z,1.6
2022-09-28T15:24:20.679Z,1.3
2022-09-28T15:25:29.035Z,1.3
2022-09-28T15:26:37.472Z,1.3
2022-09-28T15:27:46.000Z,1.4
2022-09-28T15:28:54.401Z,1.4
2022-09-28T15:30:02.726Z,1.4
2022-09-28T15:31:11.354Z,1.8
2022-09-28T15:32:19.628Z,1.8
2022-09-28T15:33:28.018Z,1.8
2022-09-28T15:34:37.148Z,1.5
2022-09-28T15:35:45.513Z,1.5
2022-09-28T15:36:53.872Z,1.5
2022-09-28T15:38:02.430Z,1.8
2022-09-28T15:39:10.832Z,1.8
2022-09-28T15:40:19.287Z,1.8
2022-09-28T15:41:27.819Z,1.5
2022-09-28T15:42:36.176Z,1.5
2022-09-28T15:43:44.576Z,1.5
2022-09-28T15:44:53.168Z,1.7
2022-09-28T15:46:01.617Z,1.7
2022-09-28T15:47:10.029Z,1.7
2022-09-28T15:48:18.571Z,1.9
2022-09-28T15:49:26.959Z,1.9
2022-09-28T15:50:35.360Z,1.9
2022-09-28T15:51:43.964Z,2
2022-09-28T15:52:52.337Z,2
2022-09-28T15:54:00.703Z,2
2022-09-28T15:55:09.408Z,2.1
2022-09-28T15:56:17.737Z,2.1
2022-09-28T15:57:26.103Z,2.1
2022-09-28T15:58:34.687Z,1.8
2022-09-28T15:59:43.092Z,1.8
2022-09-28T16:00:51.468Z,1.8
2022-09-28T16:02:00.039Z,1.8
2022-09-28T16:03:08.455Z,1.8
2022-09-28T16:04:16.850Z,1.8
2022-09-28T16:05:25.433Z,2
2022-09-28T16:06:33.796Z,2
2022-09-28T16:07:42.165Z,2
2022-09-28T16:08:50.734Z,2.4
2022-09-28T16:09:59.146Z,2.4
2022-09-28T16:11:07.532Z,2.4
2022-09-28T16:12:16.143Z,2.1
2022-09-28T16:13:24.701Z,2.1
2022-09-28T16:14:33.357Z,2.1
2022-09-28T16:15:42.061Z,1.7
2022-09-28T16:16:50.461Z,1.7
2022-09-28T16:17:58.884Z,1.7
2022-09-28T16:19:07.483Z,1.7
2022-09-28T16:20:16.093Z,1.7
2022-09-28T16:21:24.521Z,1.7
2022-09-28T16:22:33.103Z,1.5
2022-09-28T16:23:41.527Z,1.5